createdAt,value
2018-12-18T00:01:53.712Z,2.10
2018-12-18T00:05:07.484Z,2.10
2018-12-18T00:08:16.687Z,2.10
2018-12-18T00:11:26.128Z,2.20
2018-12-18T00:14:35.296Z,2.20
2018-12-18T00:17:44.487Z,2.20
2018-12-18T00:20:53.808Z,2.20
2018-12-18T00:24:03.206Z,2.20
2018-12-18T00:27:12.456Z,2.30
2018-12-18T00:30:21.684Z,2.30
2018-12-18T00:33:30.971Z,2.30
2018-12-18T00:36:40.342Z,2.30
2018-12-18T00:39:49.628Z,2.40
2018-12-18T00:42:58.803Z,2.40
2018-12-18T00:46:08.040Z,2.50
2018-12-18T00:49:17.447Z,2.50
2018-12-18T00:52:26.923Z,2.50
2018-12-18T00:55:36.169Z,2.50
2018-12-18T00:58:45.315Z,2.50
2018-12-18T01:01:59.776Z,2.50
2018-12-18T01:05:09.097Z,2.50
2018-12-18T01:08:18.456Z,2.50
2018-12-18T01:11:27.601Z,2.60
2018-12-18T01:14:36.919Z,2.60
2018-12-18T01:17:46.155Z,2.60
2018-12-18T01:20:55.450Z,2.60
2018-12-18T01:24:04.722Z,2.50
2018-12-18T01:27:13.916Z,2.60
2018-12-18T01:30:23.152Z,2.60
2018-12-18T01:33:32.318Z,2.60
2018-12-18T01:36:41.585Z,2.60
2018-12-18T01:39:50.912Z,2.60
2018-12-18T01:43:00.044Z,2.60
2018-12-18T01:46:09.210Z,2.60
2018-12-18T01:49:18.596Z,2.70
2018-12-18T01:52:27.828Z,2.60
2018-12-18T01:55:37.175Z,2.70
2018-12-18T01:58:46.432Z,2.70
2018-12-18T02:01:55.632Z,2.70
2018-12-18T02:05:05.125Z,2.70
2018-12-18T02:08:14.394Z,2.70
2018-12-18T02:11:23.555Z,2.70
2018-12-18T02:14:33.013Z,2.70
2018-12-18T02:17:42.252Z,2.80
2018-12-18T02:20:51.692Z,2.80
2018-12-18T02:24:01.080Z,2.80
2018-12-18T02:27:15.460Z,2.80
2018-12-18T02:30:24.707Z,2.80
2018-12-18T02:33:33.884Z,2.80
2018-12-18T02:36:43.064Z,2.80
2018-12-18T02:39:52.372Z,2.90
2018-12-18T02:43:01.627Z,2.90
2018-12-18T02:46:10.969Z,2.90
2018-12-18T02:49:20.081Z,2.90
2018-12-18T02:52:29.318Z,2.90
2018-12-18T02:55:38.695Z,2.90
2018-12-18T02:58:47.956Z,2.90
2018-12-18T03:01:57.355Z,2.90
2018-12-18T03:05:06.651Z,2.90
2018-12-18T03:08:15.905Z,3.00
2018-12-18T03:11:25.095Z,3.00
2018-12-18T03:14:34.608Z,3.00
2018-12-18T03:17:43.854Z,3.00
2018-12-18T03:20:53.375Z,3.00
2018-12-18T03:24:02.622Z,3.00
2018-12-18T03:27:11.820Z,3.00
2018-12-18T03:30:21.198Z,3.00
2018-12-18T03:33:30.519Z,3.00
2018-12-18T03:36:39.882Z,3.00
2018-12-18T03:47:23.308Z,3.00
2018-12-18T03:50:32.543Z,3.00
2018-12-18T03:53:41.773Z,3.00
2018-12-18T03:56:51.264Z,3.00
2018-12-18T04:00:00.548Z,3.00
2018-12-18T04:03:09.732Z,3.00
2018-12-18T04:06:20.336Z,3.00
2018-12-18T04:09:30.816Z,3.00
2018-12-18T04:12:41.103Z,3.00
2018-12-18T04:15:52.096Z,3.00
2018-12-18T04:19:01.672Z,3.00
2018-12-18T04:22:11.911Z,3.00
2018-12-18T04:25:21.214Z,3.10
2018-12-18T04:28:30.496Z,3.10
2018-12-18T04:31:39.752Z,3.10
2018-12-18T04:34:48.958Z,3.10
2018-12-18T04:37:58.230Z,3.10
2018-12-18T04:41:07.695Z,3.10
2018-12-18T04:44:16.890Z,3.10
2018-12-18T04:47:26.113Z,3.10
2018-12-18T04:50:35.401Z,3.20
2018-12-18T04:53:44.782Z,3.10
2018-12-18T04:56:53.985Z,3.20
2018-12-18T05:00:03.302Z,3.10
2018-12-18T05:03:12.529Z,3.10
2018-12-18T05:06:21.993Z,3.10
2018-12-18T05:09:31.395Z,3.20
2018-12-18T05:12:40.600Z,3.10
2018-12-18T05:15:50.063Z,3.20
2018-12-18T05:18:59.367Z,3.20
2018-12-18T05:22:08.695Z,3.20
2018-12-18T05:25:18.059Z,3.20
2018-12-18T05:28:27.494Z,3.30
2018-12-18T05:31:36.909Z,3.30
2018-12-18T05:34:46.196Z,3.30
2018-12-18T05:37:55.432Z,3.40
2018-12-18T05:41:04.849Z,3.40
2018-12-18T05:44:14.179Z,3.40
2018-12-18T05:47:23.484Z,3.40
2018-12-18T05:50:32.748Z,3.40
2018-12-18T05:53:42.125Z,3.40
2018-12-18T05:56:51.454Z,3.40
2018-12-18T06:00:00.855Z,3.40
2018-12-18T06:03:10.160Z,3.40
2018-12-18T06:06:19.564Z,3.40
2018-12-18T06:09:29.171Z,3.50
2018-12-18T06:12:38.582Z,3.50
2018-12-18T06:15:47.951Z,3.50
2018-12-18T06:18:57.257Z,3.50
2018-12-18T06:22:08.757Z,3.50
2018-12-18T06:25:18.212Z,3.50
2018-12-18T06:28:27.601Z,3.60
2018-12-18T06:31:36.955Z,3.60
2018-12-18T06:34:46.208Z,3.60
2018-12-18T06:37:55.480Z,3.60
2018-12-18T06:41:04.743Z,3.60
2018-12-18T06:44:14.041Z,3.70
2018-12-18T06:47:23.277Z,3.70
2018-12-18T06:50:32.681Z,3.70
2018-12-18T06:53:42.037Z,3.80
2018-12-18T06:56:51.268Z,3.70
2018-12-18T07:00:00.607Z,3.80
2018-12-18T07:03:09.855Z,3.80
2018-12-18T07:06:19.270Z,3.80
2018-12-18T07:09:28.560Z,3.80
2018-12-18T07:12:37.772Z,3.80
2018-12-18T07:15:47.098Z,3.90
2018-12-18T07:18:56.460Z,4.10
2018-12-18T07:22:05.849Z,4.10
2018-12-18T07:25:15.229Z,4.10
2018-12-18T07:28:24.480Z,4.00
2018-12-18T07:31:34.618Z,4.00
2018-12-18T07:34:44.099Z,4.10
2018-12-18T07:37:53.418Z,4.00
2018-12-18T07:41:02.743Z,4.10
2018-12-18T07:44:12.175Z,4.10
2018-12-18T07:47:21.461Z,4.20
2018-12-18T07:50:30.821Z,4.20
2018-12-18T07:53:40.153Z,4.20
2018-12-18T07:56:49.605Z,4.30
2018-12-18T07:59:58.949Z,4.30
2018-12-18T08:03:08.235Z,4.40
2018-12-18T08:06:17.505Z,4.40
2018-12-18T08:09:26.862Z,4.40
2018-12-18T08:12:36.156Z,4.40
2018-12-18T08:15:45.410Z,4.40
2018-12-18T08:18:54.819Z,4.40
2018-12-18T08:22:04.041Z,4.40
2018-12-18T08:25:13.390Z,4.40
2018-12-18T08:28:22.652Z,4.50
2018-12-18T08:31:32.016Z,4.50
2018-12-18T08:34:41.308Z,4.50
2018-12-18T08:37:50.621Z,4.50
2018-12-18T08:40:59.973Z,4.50
2018-12-18T08:44:09.407Z,4.50
2018-12-18T08:47:18.824Z,4.60
2018-12-18T08:50:28.057Z,4.60
2018-12-18T08:53:37.341Z,4.50
2018-12-18T08:56:46.764Z,4.60
2018-12-18T08:59:55.998Z,4.60
2018-12-18T09:03:05.444Z,4.60
2018-12-18T09:06:14.736Z,4.60
2018-12-18T09:09:24.160Z,4.60
2018-12-18T09:12:33.473Z,4.60
2018-12-18T09:15:48.126Z,4.70
2018-12-18T09:18:57.708Z,4.80
2018-12-18T09:22:07.054Z,4.80
2018-12-18T09:25:16.523Z,4.90
2018-12-18T09:28:25.797Z,5.00
2018-12-18T09:31:35.188Z,5.00
2018-12-18T09:34:44.371Z,5.00
2018-12-18T09:37:59.114Z,5.00
2018-12-18T09:41:14.184Z,5.10
2018-12-18T09:44:23.491Z,5.20
2018-12-18T09:47:32.717Z,5.20
2018-12-18T09:50:42.004Z,5.20
2018-12-18T09:53:51.428Z,5.20
2018-12-18T09:57:01.210Z,5.10
2018-12-18T10:00:10.724Z,5.10
2018-12-18T10:03:19.989Z,5.10
2018-12-18T10:06:29.336Z,5.10
2018-12-18T10:09:38.808Z,5.20
2018-12-18T10:12:53.689Z,5.30
2018-12-18T10:16:03.451Z,5.40
2018-12-18T10:19:12.709Z,5.50
2018-12-18T10:22:22.062Z,5.60
2018-12-18T10:25:31.820Z,5.60
2018-12-18T10:28:41.200Z,5.60
2018-12-18T10:31:50.608Z,5.60
2018-12-18T10:35:00.037Z,5.70
2018-12-18T10:38:09.311Z,5.70
2018-12-18T10:41:18.728Z,5.80
2018-12-18T10:44:28.185Z,5.80
2018-12-18T10:47:37.571Z,5.90
2018-12-18T10:50:47.011Z,5.90
2018-12-18T10:53:56.323Z,5.90
2018-12-18T10:57:05.588Z,6.00
2018-12-18T11:00:20.702Z,6.00
2018-12-18T11:03:30.026Z,6.00
2018-12-18T11:06:39.285Z,6.00
2018-12-18T11:09:48.633Z,6.00
2018-12-18T11:13:03.740Z,6.00
2018-12-18T11:16:13.133Z,6.00
2018-12-18T11:19:22.411Z,6.00
2018-12-18T11:22:31.784Z,6.00
2018-12-18T11:25:41.281Z,6.10
2018-12-18T11:28:50.549Z,6.10
2018-12-18T11:31:59.962Z,6.20
2018-12-18T11:35:09.340Z,6.20
2018-12-18T11:38:18.609Z,6.30
2018-12-18T11:41:28.051Z,6.30
2018-12-18T11:44:37.254Z,6.30
2018-12-18T11:47:46.666Z,6.40
2018-12-18T11:50:55.899Z,6.40
2018-12-18T11:54:05.232Z,6.50
2018-12-18T11:57:14.694Z,6.50
2018-12-18T12:00:24.111Z,6.60
2018-12-18T12:03:33.396Z,6.70
2018-12-18T12:06:42.758Z,6.80
2018-12-18T12:09:52.051Z,6.80
2018-12-18T12:13:01.438Z,6.80
2018-12-18T12:16:10.787Z,6.70
2018-12-18T12:19:20.045Z,6.60
2018-12-18T12:22:29.233Z,6.50
2018-12-18T12:25:38.617Z,6.40
2018-12-18T12:28:47.817Z,6.20
2018-12-18T12:31:57.207Z,6.10
2018-12-18T12:35:06.556Z,6.00
2018-12-18T12:38:15.735Z,6.00
2018-12-18T12:41:24.987Z,6.00
2018-12-18T12:44:34.272Z,5.90
2018-12-18T12:47:47.727Z,5.80
2018-12-18T12:50:56.833Z,5.80
2018-12-18T12:54:06.321Z,5.70
2018-12-18T12:57:15.625Z,5.70
2018-12-18T13:00:25.733Z,5.70
2018-12-18T13:03:35.009Z,5.60
2018-12-18T13:06:44.137Z,5.70
2018-12-18T13:09:53.384Z,5.80
2018-12-18T13:13:02.801Z,5.90
2018-12-18T13:16:12.169Z,6.00
2018-12-18T13:19:21.488Z,6.00
2018-12-18T13:22:30.844Z,5.90
2018-12-18T13:25:40.373Z,5.90
2018-12-18T13:28:49.705Z,5.90
2018-12-18T13:31:58.914Z,6.00
2018-12-18T13:35:08.287Z,6.10
2018-12-18T13:38:17.706Z,6.00
2018-12-18T13:41:27.162Z,6.00
2018-12-18T13:44:36.429Z,5.90
2018-12-18T13:47:45.716Z,5.80
2018-12-18T13:50:55.074Z,5.70
2018-12-18T13:54:04.620Z,5.60
2018-12-18T13:57:14.030Z,5.50
2018-12-18T14:00:23.627Z,5.50
2018-12-18T14:03:33.096Z,5.30
2018-12-18T14:06:42.579Z,5.30
2018-12-18T14:09:52.139Z,5.30
2018-12-18T14:13:01.616Z,5.30
2018-12-18T14:16:10.837Z,5.30
2018-12-18T14:19:20.255Z,5.30
2018-12-18T14:22:29.539Z,5.30
2018-12-18T14:25:38.897Z,5.30
2018-12-18T14:28:48.153Z,5.40
2018-12-18T14:31:57.470Z,5.50
2018-12-18T14:35:06.876Z,5.50
2018-12-18T14:38:16.424Z,5.50
2018-12-18T14:41:25.761Z,5.50
2018-12-18T14:44:35.149Z,5.40
2018-12-18T14:48:47.624Z,5.40
2018-12-18T14:51:56.999Z,5.30
2018-12-18T14:55:06.301Z,5.20
2018-12-18T14:58:15.827Z,5.10
2018-12-18T15:01:25.143Z,5.00
2018-12-18T15:04:34.515Z,5.00
2018-12-18T15:07:43.744Z,5.00
2018-12-18T15:10:52.984Z,5.00
2018-12-18T15:14:02.511Z,5.00
2018-12-18T15:17:11.900Z,4.90
2018-12-18T15:20:21.132Z,4.90
2018-12-18T15:23:30.372Z,4.80
2018-12-18T15:26:39.746Z,4.80
2018-12-18T15:29:49.132Z,4.70
2018-12-18T15:32:58.606Z,4.60
2018-12-18T15:36:08.009Z,4.60
2018-12-18T15:39:17.275Z,4.50
2018-12-18T15:42:26.640Z,4.40
2018-12-18T15:45:35.807Z,4.40
2018-12-18T15:48:45.204Z,4.50
2018-12-18T15:51:54.505Z,4.40
2018-12-18T15:55:04.137Z,4.40
2018-12-18T15:58:13.504Z,4.40
2018-12-18T16:01:22.753Z,4.30
2018-12-18T16:04:32.132Z,4.30
2018-12-18T16:07:41.568Z,4.30
2018-12-18T16:10:50.838Z,4.30
2018-12-18T16:14:00.218Z,4.20
2018-12-18T16:17:09.573Z,4.10
2018-12-18T16:20:18.919Z,4.10
2018-12-18T16:23:28.164Z,4.10
2018-12-18T16:26:37.526Z,4.10
2018-12-18T16:29:46.887Z,4.00
2018-12-18T16:32:56.104Z,4.00
2018-12-18T16:36:05.493Z,3.90
2018-12-18T16:39:15.004Z,3.80
2018-12-18T16:42:24.193Z,3.60
2018-12-18T16:45:33.610Z,3.70
2018-12-18T16:48:42.874Z,3.70
2018-12-18T16:51:52.170Z,3.70
2018-12-18T16:58:17.529Z,3.50
2018-12-18T17:01:26.819Z,3.50
2018-12-18T17:04:36.143Z,3.50
2018-12-18T17:07:45.522Z,3.40
2018-12-18T17:10:54.780Z,3.30
2018-12-18T17:14:04.047Z,3.40
2018-12-18T17:17:13.548Z,3.40
2018-12-18T17:20:22.804Z,3.40
2018-12-18T17:23:32.081Z,3.50
2018-12-18T17:26:41.297Z,3.30
2018-12-18T17:29:50.710Z,3.20
2018-12-18T17:32:59.926Z,3.00
2018-12-18T17:36:09.284Z,3.10
2018-12-18T17:39:18.735Z,3.10
2018-12-18T17:42:28.136Z,3.10
2018-12-18T17:45:37.623Z,3.00
2018-12-18T17:48:47.116Z,2.90
2018-12-18T17:51:56.487Z,2.80
2018-12-18T17:55:05.926Z,2.80
2018-12-18T17:58:17.061Z,2.70
2018-12-18T18:01:26.372Z,2.70
2018-12-18T18:04:35.664Z,2.60
2018-12-18T18:07:45.234Z,2.60
2018-12-18T18:10:54.607Z,2.60
2018-12-18T18:14:03.905Z,2.60
2018-12-18T18:17:13.346Z,2.50
2018-12-18T18:20:22.739Z,2.50
2018-12-18T18:23:32.288Z,2.40
2018-12-18T18:26:41.631Z,2.40
2018-12-18T18:29:50.998Z,2.40
2018-12-18T18:33:00.361Z,2.60
2018-12-18T18:36:09.770Z,2.60
2018-12-18T18:39:19.180Z,2.60
2018-12-18T18:42:28.463Z,2.50
2018-12-18T18:45:37.680Z,2.50
2018-12-18T18:48:47.111Z,2.50
2018-12-18T18:51:56.485Z,2.50
2018-12-18T18:55:05.651Z,2.40
2018-12-18T18:58:14.953Z,2.40
2018-12-18T19:01:24.451Z,2.30
2018-12-18T19:04:34.800Z,2.30
2018-12-18T19:07:44.152Z,2.30
2018-12-18T19:10:53.525Z,2.30
2018-12-18T19:14:02.771Z,2.30
2018-12-18T19:17:12.002Z,2.30
2018-12-18T19:20:21.336Z,2.20
2018-12-18T19:23:30.755Z,2.20
2018-12-18T19:26:40.261Z,2.10
2018-12-18T19:29:49.549Z,2.20
2018-12-18T19:32:58.932Z,2.10
2018-12-18T19:36:08.308Z,2.10
2018-12-18T19:39:17.884Z,2.10
2018-12-18T19:42:27.437Z,2.10
2018-12-18T19:45:36.724Z,2.10
2018-12-18T19:48:46.021Z,2.10
2018-12-18T19:51:55.268Z,2.10
2018-12-18T19:55:04.848Z,2.10
2018-12-18T19:58:14.166Z,2.00
2018-12-18T20:01:23.738Z,2.10
2018-12-18T20:04:33.144Z,2.00
2018-12-18T20:07:42.454Z,2.10
2018-12-18T20:10:51.715Z,2.10
2018-12-18T20:14:01.078Z,2.00
2018-12-18T20:17:10.800Z,2.00
2018-12-18T20:20:20.090Z,1.90
2018-12-18T20:23:29.386Z,1.90
2018-12-18T20:26:38.738Z,1.90
2018-12-18T20:29:48.421Z,1.80
2018-12-18T20:32:57.745Z,1.80
2018-12-18T20:36:06.933Z,1.70
2018-12-18T20:39:16.321Z,1.70
2018-12-18T20:42:25.663Z,1.60
2018-12-18T20:45:34.860Z,1.60
2018-12-18T20:48:44.122Z,1.60
2018-12-18T20:51:53.532Z,1.50
2018-12-18T20:55:02.943Z,1.50
2018-12-18T20:58:12.241Z,1.40
2018-12-18T21:01:21.553Z,1.40
2018-12-18T21:04:30.841Z,1.40
2018-12-18T21:07:40.454Z,1.30
2018-12-18T21:10:49.873Z,1.30
2018-12-18T21:14:05.825Z,1.30
2018-12-18T21:17:15.324Z,1.30
2018-12-18T21:20:24.680Z,1.30
2018-12-18T21:23:34.073Z,1.20
2018-12-18T21:26:43.556Z,1.30
2018-12-18T21:29:53.221Z,1.30
2018-12-18T21:33:02.755Z,1.30
2018-12-18T21:36:12.276Z,1.20
2018-12-18T21:39:21.917Z,1.20
2018-12-18T21:42:31.442Z,1.20
2018-12-18T21:45:40.982Z,1.10
2018-12-18T21:48:50.487Z,1.20
2018-12-18T21:52:00.081Z,1.10
2018-12-18T21:55:09.610Z,1.10
2018-12-18T21:58:19.009Z,1.10
2018-12-18T22:01:28.405Z,1.00
2018-12-18T22:04:37.926Z,1.00
2018-12-18T22:07:47.648Z,1.00
2018-12-18T22:10:57.035Z,0.90
2018-12-18T22:14:06.402Z,0.80
2018-12-18T22:17:15.881Z,0.90
2018-12-18T22:20:25.471Z,0.90
2018-12-18T22:23:35.007Z,0.90
2018-12-18T22:26:44.354Z,0.80
2018-12-18T22:29:53.804Z,0.80
2018-12-18T22:33:03.216Z,0.90
2018-12-18T22:36:12.420Z,0.90
2018-12-18T22:39:21.822Z,0.90
2018-12-18T22:42:31.207Z,0.90
2018-12-18T22:45:40.557Z,0.90
2018-12-18T22:48:50.003Z,0.80
2018-12-18T22:51:59.336Z,0.70
2018-12-18T22:55:08.773Z,0.80
2018-12-18T22:58:18.211Z,0.70
2018-12-18T23:01:34.026Z,0.70
2018-12-18T23:04:43.427Z,0.60
2018-12-18T23:07:52.645Z,0.60
2018-12-18T23:11:02.245Z,0.50
2018-12-18T23:14:11.546Z,0.50
2018-12-18T23:17:21.013Z,0.50
2018-12-18T23:20:30.293Z,0.50
2018-12-18T23:23:39.691Z,0.50
2018-12-18T23:26:49.050Z,0.50
2018-12-18T23:29:58.565Z,0.50
2018-12-18T23:33:08.043Z,0.50
2018-12-18T23:36:17.341Z,0.40
2018-12-18T23:39:26.744Z,0.40
2018-12-18T23:42:36.119Z,0.50
2018-12-18T23:45:45.303Z,0.50
2018-12-18T23:48:54.548Z,0.40
2018-12-18T23:52:03.980Z,0.50
2018-12-18T23:55:13.425Z,0.40
2018-12-18T23:58:22.794Z,0.40
